Time;durP1;ratioP1;P1;durP2;ratioP2;P2;SDS_P1;SDS_P2;PMS_P1;PMS_P2;Temp;Humidity;BMP_temperature;BMP_pressure;BME280_temperature;BME280_humidity;BME280_pressure;Samples;Min_cycle;Max_cycle;Signal;HPM_P1;HPM_P2
2021/12/23 00:02:25;;;;;;;17.77;10.43;;;;;;;;;;5075082;28;20064;-84
2021/12/23 00:04:51;;;;;;;18.55;10.82;;;;;;;;;;5059210;28;20092;-85
2021/12/23 00:07:17;;;;;;;20.80;9.95;;;;;;;;;;5042686;28;20048;-85
2021/12/23 00:12:16;;;;;;;19.75;10.48;;;;;;;;;;5059437;28;20183;-85
2021/12/23 00:14:42;;;;;;;15.90;9.90;;;;;;;;;;5059897;28;20053;-85
2021/12/23 00:17:26;;;;;;;18.33;9.10;;;;;;;;;;5076331;28;20051;-85
2021/12/23 00:25:18;;;;;;;18.27;10.80;;;;;;;;;;5120451;27;20044;-85
2021/12/23 00:27:47;;;;;;;16.45;9.95;;;;;;;;;;5120068;27;20075;-85
2021/12/23 00:30:13;;;;;;;14.85;10.05;;;;;;;;;;5102624;27;20039;-85
2021/12/23 00:32:40;;;;;;;16.10;9.90;;;;;;;;;;5118806;27;20061;-85
2021/12/23 00:35:06;;;;;;;16.35;10.95;;;;;;;;;;5101262;27;20046;-85
2021/12/23 00:37:38;;;;;;;16.30;10.65;;;;;;;;;;5101239;27;20518;-85
2021/12/23 00:40:05;;;;;;;18.23;12.18;;;;;;;;;;5102298;27;20553;-85
2021/12/23 00:42:33;;;;;;;18.27;10.35;;;;;;;;;;5101828;27;20051;-85
2021/12/23 00:44:59;;;;;;;15.30;9.85;;;;;;;;;;5101652;27;20043;-86
2021/12/23 00:47:25;;;;;;;15.77;10.40;;;;;;;;;;5101521;27;20043;-85
2021/12/23 00:49:51;;;;;;;14.10;9.55;;;;;;;;;;5119630;27;20100;-86
2021/12/23 00:52:24;;;;;;;22.63;12.45;;;;;;;;;;5103223;27;20051;-86
2021/12/23 00:54:50;;;;;;;16.73;10.55;;;;;;;;;;5102220;27;20447;-86
2021/12/23 00:57:16;;;;;;;15.68;10.10;;;;;;;;;;5102493;27;20077;-85
2021/12/23 00:59:43;;;;;;;14.95;11.05;;;;;;;;;;5102080;27;20043;-90
2021/12/23 01:02:11;;;;;;;14.85;10.32;;;;;;;;;;5119326;27;20039;-92
2021/12/23 01:04:37;;;;;;;18.33;10.73;;;;;;;;;;5102189;27;20047;-90
2021/12/23 01:07:03;;;;;;;15.23;10.07;;;;;;;;;;5103076;27;20406;-89
2021/12/23 01:09:29;;;;;;;15.23;10.98;;;;;;;;;;5120908;27;20043;-90
2021/12/23 01:11:56;;;;;;;17.95;10.32;;;;;;;;;;5102697;27;20043;-88
2021/12/23 01:19:23;;;;;;;17.77;10.00;;;;;;;;;;5118373;27;20047;-90
2021/12/23 01:21:50;;;;;;;15.05;9.93;;;;;;;;;;5118555;27;20039;-91
2021/12/23 01:24:16;;;;;;;15.20;10.15;;;;;;;;;;5120173;27;20170;-91
2021/12/23 01:26:42;;;;;;;16.25;11.20;;;;;;;;;;5118986;27;20047;-92
2021/12/23 01:29:08;;;;;;;19.58;10.35;;;;;;;;;;5101997;27;20053;-91
2021/12/23 01:31:38;;;;;;;15.35;9.77;;;;;;;;;;5119527;27;20043;-93
2021/12/23 01:34:04;;;;;;;16.27;10.30;;;;;;;;;;5137299;27;20054;-91
2021/12/23 01:36:30;;;;;;;19.55;11.30;;;;;;;;;;5118665;27;20086;-91
2021/12/23 01:38:57;;;;;;;18.45;11.55;;;;;;;;;;5101520;27;20108;-88
2021/12/23 01:41:23;;;;;;;20.63;10.30;;;;;;;;;;5101415;27;20043;-91
2021/12/23 01:43:50;;;;;;;14.55;10.25;;;;;;;;;;5118710;27;20046;-91
2021/12/23 01:46:16;;;;;;;18.52;11.48;;;;;;;;;;5119604;27;20050;-92
2021/12/23 01:48:43;;;;;;;16.35;10.25;;;;;;;;;;5118356;27;20047;-90
2021/12/23 01:51:09;;;;;;;13.18;9.60;;;;;;;;;;5102569;27;20080;-90
2021/12/23 01:53:35;;;;;;;17.13;10.40;;;;;;;;;;5100911;27;20043;-88
2021/12/23 01:56:01;;;;;;;16.83;9.50;;;;;;;;;;5100626;27;20047;-90
2021/12/23 01:58:28;;;;;;;16.80;10.98;;;;;;;;;;5100636;27;20175;-88
2021/12/23 02:00:54;;;;;;;16.98;10.80;;;;;;;;;;5100606;27;20558;-89
2021/12/23 02:03:20;;;;;;;18.90;12.38;;;;;;;;;;5117514;27;20043;-88
2021/12/23 02:05:46;;;;;;;19.58;11.30;;;;;;;;;;5100681;27;20035;-88
2021/12/23 02:08:12;;;;;;;17.00;10.80;;;;;;;;;;5100641;27;20043;-88
2021/12/23 02:10:42;;;;;;;15.98;10.05;;;;;;;;;;5117698;27;20104;-88
2021/12/23 02:13:09;;;;;;;18.85;10.43;;;;;;;;;;5116996;27;20130;-89
2021/12/23 02:15:35;;;;;;;19.33;10.75;;;;;;;;;;5117055;27;20047;-87
2021/12/23 02:18:01;;;;;;;17.33;10.88;;;;;;;;;;5117391;28;20043;-86
2021/12/23 02:20:32;;;;;;;23.80;13.25;;;;;;;;;;5100299;27;20042;-88
2021/12/23 02:22:58;;;;;;;17.10;10.43;;;;;;;;;;5100309;27;20046;-88
2021/12/23 02:25:24;;;;;;;20.90;12.07;;;;;;;;;;5101218;27;20046;-88
2021/12/23 02:27:51;;;;;;;17.50;11.90;;;;;;;;;;5100959;28;20527;-89
2021/12/23 02:30:19;;;;;;;18.77;11.00;;;;;;;;;;5100953;28;20125;-88
2021/12/23 02:32:46;;;;;;;17.52;11.30;;;;;;;;;;5117822;28;20059;-88
2021/12/23 02:35:14;;;;;;;23.63;11.10;;;;;;;;;;5100987;28;20125;-87
2021/12/23 02:37:41;;;;;;;19.63;11.10;;;;;;;;;;5116975;28;20552;-86
2021/12/23 02:40:08;;;;;;;14.90;10.00;;;;;;;;;;5117140;28;20078;-86
2021/12/23 02:42:34;;;;;;;16.98;9.30;;;;;;;;;;5116150;28;20130;-86
2021/12/23 02:45:01;;;;;;;18.98;11.80;;;;;;;;;;5100221;28;20134;-86
2021/12/23 02:47:27;;;;;;;18.17;10.80;;;;;;;;;;5118063;28;20080;-86
2021/12/23 02:49:53;;;;;;;18.48;8.80;;;;;;;;;;5099651;28;20046;-86
2021/12/23 02:52:20;;;;;;;20.98;13.43;;;;;;;;;;5100458;28;20050;-86
2021/12/23 02:54:54;;;;;;;16.05;10.10;;;;;;;;;;5117135;28;20483;-86
2021/12/23 02:57:20;;;;;;;18.27;12.05;;;;;;;;;;5118711;28;20034;-86
2021/12/23 02:59:46;;;;;;;13.93;10.02;;;;;;;;;;5099861;28;20058;-86
2021/12/23 03:02:12;;;;;;;16.15;10.05;;;;;;;;;;5100168;28;20043;-86
2021/12/23 03:04:38;;;;;;;14.57;9.55;;;;;;;;;;5116668;28;20086;-86
2021/12/23 03:07:04;;;;;;;18.25;10.23;;;;;;;;;;5099971;28;20043;-85
2021/12/23 03:09:30;;;;;;;18.70;11.32;;;;;;;;;;5116976;28;20039;-85
2021/12/23 03:11:56;;;;;;;23.92;10.98;;;;;;;;;;5116884;28;20078;-86
2021/12/23 03:14:22;;;;;;;19.67;11.25;;;;;;;;;;5099560;28;20039;-86
2021/12/23 03:16:50;;;;;;;19.67;10.88;;;;;;;;;;5099984;28;20039;-86
2021/12/23 03:19:16;;;;;;;21.05;10.63;;;;;;;;;;5099458;28;20047;-87
2021/12/23 03:21:44;;;;;;;21.60;11.18;;;;;;;;;;5116076;28;20043;-86
2021/12/23 03:24:11;;;;;;;14.48;8.68;;;;;;;;;;5101870;27;20031;-86
2021/12/23 03:26:37;;;;;;;18.27;10.68;;;;;;;;;;5104039;27;20091;-86
2021/12/23 03:29:04;;;;;;;17.10;10.40;;;;;;;;;;5103398;27;20046;-86
2021/12/23 03:31:30;;;;;;;20.20;11.35;;;;;;;;;;5120321;27;20104;-86
2021/12/23 03:33:56;;;;;;;19.40;12.18;;;;;;;;;;5103076;27;20054;-87
2021/12/23 03:36:22;;;;;;;18.17;11.10;;;;;;;;;;5120822;27;20126;-87
2021/12/23 03:38:48;;;;;;;17.77;10.57;;;;;;;;;;5120200;27;20061;-88
2021/12/23 03:41:15;;;;;;;18.67;10.75;;;;;;;;;;5102563;27;20134;-89
2021/12/23 03:43:42;;;;;;;28.55;11.10;;;;;;;;;;5103671;27;20100;-87
2021/12/23 03:46:08;;;;;;;16.98;11.45;;;;;;;;;;5103375;27;20053;-86
2021/12/23 03:48:34;;;;;;;18.00;11.43;;;;;;;;;;5103374;27;20074;-86
2021/12/23 03:51:00;;;;;;;19.80;12.20;;;;;;;;;;5102883;27;20046;-86
2021/12/23 03:53:26;;;;;;;18.77;12.10;;;;;;;;;;5103848;27;20047;-87
2021/12/23 03:55:52;;;;;;;21.15;10.57;;;;;;;;;;5102540;27;20036;-86
2021/12/23 03:58:18;;;;;;;22.15;11.55;;;;;;;;;;5138590;27;20050;-87
2021/12/23 04:00:46;;;;;;;20.08;11.18;;;;;;;;;;5138612;27;20062;-87
2021/12/23 04:03:13;;;;;;;19.02;11.05;;;;;;;;;;5120572;27;20047;-86
2021/12/23 04:05:39;;;;;;;21.67;12.80;;;;;;;;;;5103877;27;20047;-86
2021/12/23 04:08:05;;;;;;;20.58;10.95;;;;;;;;;;5103199;27;20043;-86
2021/12/23 04:10:32;;;;;;;19.38;12.15;;;;;;;;;;5103678;27;20043;-86
2021/12/23 04:12:58;;;;;;;19.30;10.02;;;;;;;;;;5103052;27;20472;-86
2021/12/23 04:15:24;;;;;;;16.83;10.30;;;;;;;;;;5102870;27;20081;-86
2021/12/23 04:17:50;;;;;;;18.45;10.85;;;;;;;;;;5120151;27;20035;-86
2021/12/23 04:20:20;;;;;;;19.75;12.32;;;;;;;;;;5103919;27;20126;-86
2021/12/23 04:22:47;;;;;;;18.40;11.45;;;;;;;;;;5119189;27;20051;-86
2021/12/23 04:25:14;;;;;;;22.77;12.10;;;;;;;;;;5118921;27;20050;-86
2021/12/23 04:27:40;;;;;;;18.20;11.25;;;;;;;;;;5101818;27;20054;-86
2021/12/23 04:30:07;;;;;;;17.50;11.18;;;;;;;;;;5102229;27;20039;-86
2021/12/23 04:32:33;;;;;;;22.90;13.77;;;;;;;;;;5102538;27;20047;-86
2021/12/23 04:34:59;;;;;;;20.13;11.65;;;;;;;;;;5101207;27;20395;-86
2021/12/23 04:37:25;;;;;;;19.77;11.52;;;;;;;;;;5101981;27;20487;-86
2021/12/23 04:39:51;;;;;;;22.85;13.20;;;;;;;;;;5101929;27;20411;-86
2021/12/23 04:42:17;;;;;;;15.98;10.93;;;;;;;;;;5101909;27;20038;-86
2021/12/23 04:44:43;;;;;;;17.83;11.80;;;;;;;;;;5102604;27;20047;-86
2021/12/23 04:47:09;;;;;;;26.17;11.85;;;;;;;;;;5101860;27;20092;-86
2021/12/23 04:49:35;;;;;;;16.08;11.18;;;;;;;;;;5101802;27;20518;-86
2021/12/23 04:52:01;;;;;;;20.92;12.27;;;;;;;;;;5101219;27;20054;-86
2021/12/23 04:54:28;;;;;;;20.42;11.30;;;;;;;;;;5119138;27;20043;-86
2021/12/23 04:56:54;;;;;;;24.77;12.35;;;;;;;;;;5101482;27;20491;-87
2021/12/23 04:59:20;;;;;;;23.63;12.70;;;;;;;;;;5102173;27;20051;-86
2021/12/23 05:01:47;;;;;;;16.92;11.13;;;;;;;;;;5101224;27;20035;-86
2021/12/23 05:04:13;;;;;;;20.15;12.52;;;;;;;;;;5118902;27;20077;-86
2021/12/23 05:06:40;;;;;;;21.52;11.80;;;;;;;;;;5101063;27;20088;-86
2021/12/23 05:09:06;;;;;;;22.40;12.43;;;;;;;;;;5118247;27;20131;-87
2021/12/23 05:11:32;;;;;;;21.50;11.77;;;;;;;;;;5118253;27;20047;-87
2021/12/23 05:13:59;;;;;;;19.42;11.20;;;;;;;;;;5100563;27;20545;-87
2021/12/23 05:16:25;;;;;;;20.98;12.50;;;;;;;;;;5101828;27;20487;-86
2021/12/23 05:18:51;;;;;;;13.57;8.85;;;;;;;;;;5118904;27;20058;-87
2021/12/23 05:21:17;;;;;;;20.80;13.10;;;;;;;;;;5119806;27;20047;-86
2021/12/23 05:23:43;;;;;;;18.00;11.48;;;;;;;;;;5137111;27;20046;-87
2021/12/23 05:26:09;;;;;;;19.90;11.65;;;;;;;;;;5118329;27;20131;-87
2021/12/23 05:28:36;;;;;;;21.73;11.82;;;;;;;;;;5136607;27;20050;-86
2021/12/23 05:31:03;;;;;;;19.15;12.40;;;;;;;;;;5117854;27;20043;-87
2021/12/23 05:33:29;;;;;;;25.20;13.50;;;;;;;;;;5100464;27;20039;-87
2021/12/23 05:35:55;;;;;;;25.52;12.55;;;;;;;;;;5118209;27;20046;-87
2021/12/23 05:38:21;;;;;;;21.42;12.88;;;;;;;;;;5118151;27;20059;-87
2021/12/23 05:40:47;;;;;;;17.30;10.98;;;;;;;;;;5118339;27;20043;-87
2021/12/23 05:43:14;;;;;;;20.65;12.30;;;;;;;;;;5101605;27;20066;-86
2021/12/23 05:45:40;;;;;;;21.88;12.32;;;;;;;;;;5118029;27;20035;-86
2021/12/23 05:48:06;;;;;;;18.55;11.73;;;;;;;;;;5118044;27;20051;-86
2021/12/23 05:50:32;;;;;;;19.67;11.90;;;;;;;;;;5099773;27;20038;-86
2021/12/23 05:52:58;;;;;;;18.65;12.23;;;;;;;;;;5100486;27;20560;-86
2021/12/23 05:55:24;;;;;;;20.80;12.45;;;;;;;;;;5117541;27;20088;-86
2021/12/23 05:57:50;;;;;;;22.90;12.75;;;;;;;;;;5100465;27;20043;-86
2021/12/23 06:00:21;;;;;;;21.25;12.73;;;;;;;;;;5100126;27;20035;-86
2021/12/23 06:02:48;;;;;;;24.63;14.88;;;;;;;;;;5135605;27;20094;-86
2021/12/23 06:05:15;;;;;;;21.27;12.02;;;;;;;;;;5117148;27;20537;-87
2021/12/23 06:07:41;;;;;;;22.58;12.75;;;;;;;;;;5116912;27;20053;-87
2021/12/23 06:10:08;;;;;;;23.88;13.15;;;;;;;;;;5135320;27;20396;-87
2021/12/23 06:12:34;;;;;;;22.83;13.23;;;;;;;;;;5100045;27;20099;-87
2021/12/23 06:15:00;;;;;;;20.60;13.05;;;;;;;;;;5100013;27;20495;-87
2021/12/23 06:17:26;;;;;;;18.75;12.80;;;;;;;;;;5099880;27;20134;-86
2021/12/23 06:19:52;;;;;;;21.25;12.65;;;;;;;;;;5100342;28;20042;-86
2021/12/23 06:22:19;;;;;;;16.85;11.52;;;;;;;;;;5099997;27;20043;-87
2021/12/23 06:24:47;;;;;;;23.33;13.82;;;;;;;;;;5117339;27;20068;-86
2021/12/23 06:27:13;;;;;;;26.98;14.52;;;;;;;;;;5117169;28;20043;-86
2021/12/23 06:29:39;;;;;;;23.42;13.85;;;;;;;;;;5099450;28;20414;-86
2021/12/23 06:32:05;;;;;;;22.92;14.55;;;;;;;;;;5117030;28;20122;-86
2021/12/23 06:34:31;;;;;;;21.00;13.55;;;;;;;;;;5116782;28;20054;-86
2021/12/23 06:36:58;;;;;;;24.65;13.95;;;;;;;;;;5117471;28;20077;-86
2021/12/23 06:39:24;;;;;;;21.80;13.50;;;;;;;;;;5116506;28;20070;-86
2021/12/23 06:41:50;;;;;;;24.67;14.30;;;;;;;;;;5116958;28;20039;-85
2021/12/23 06:44:16;;;;;;;22.20;13.55;;;;;;;;;;5100772;28;20043;-86
2021/12/23 06:46:42;;;;;;;25.38;14.60;;;;;;;;;;5099550;28;20439;-86
2021/12/23 06:49:08;;;;;;;23.23;14.20;;;;;;;;;;5100619;28;20094;-86
2021/12/23 06:51:34;;;;;;;24.63;16.38;;;;;;;;;;5099659;28;20051;-86
2021/12/23 06:54:02;;;;;;;23.40;13.70;;;;;;;;;;5116675;28;20093;-86
2021/12/23 06:56:28;;;;;;;22.75;14.73;;;;;;;;;;5099801;28;20100;-86
2021/12/23 06:58:54;;;;;;;23.33;14.07;;;;;;;;;;5101765;27;20473;-86
2021/12/23 07:01:21;;;;;;;24.88;13.68;;;;;;;;;;5105139;27;20344;-86
2021/12/23 07:04:12;;;;;;;21.35;13.13;;;;;;;;;;5120928;27;20042;-87
2021/12/23 07:06:46;;;;;;;28.33;13.73;;;;;;;;;;5120528;27;20051;-86
2021/12/23 07:09:11;;;;;;;;;;;;;;;;;;5121358;27;20106;-86
2021/12/23 07:11:37;;;;;;;22.88;13.77;;;;;;;;;;5103781;27;20362;-86
2021/12/23 07:14:03;;;;;;;26.92;14.52;;;;;;;;;;5103263;27;20095;-87
2021/12/23 07:16:29;;;;;;;25.55;14.15;;;;;;;;;;5103595;27;20111;-86
2021/12/23 07:18:56;;;;;;;22.10;13.32;;;;;;;;;;5121127;27;20436;-86
2021/12/23 07:21:22;;;;;;;22.83;15.23;;;;;;;;;;5120610;27;20080;-87
2021/12/23 07:23:48;;;;;;;24.13;13.25;;;;;;;;;;5103694;27;20483;-86
2021/12/23 07:26:15;;;;;;;18.52;12.85;;;;;;;;;;5103736;27;20081;-86
2021/12/23 07:28:41;;;;;;;28.17;16.20;;;;;;;;;;5103501;27;20138;-87
2021/12/23 07:31:07;;;;;;;26.25;15.13;;;;;;;;;;5104486;27;20042;-87
2021/12/23 07:33:34;;;;;;;23.42;14.68;;;;;;;;;;5103517;27;20514;-87
2021/12/23 07:36:01;;;;;;;22.63;13.38;;;;;;;;;;5103127;27;20476;-86
2021/12/23 07:38:27;;;;;;;26.15;15.20;;;;;;;;;;5103744;27;20057;-86
2021/12/23 07:40:53;;;;;;;26.08;14.23;;;;;;;;;;5120699;27;20391;-86
2021/12/23 07:43:44;;;;;;;25.05;14.98;;;;;;;;;;5120011;27;20077;-86
2021/12/23 07:46:11;;;;;;;27.85;14.75;;;;;;;;;;5120287;27;20043;-86
2021/12/23 07:48:37;;;;;;;26.70;15.00;;;;;;;;;;5102842;27;20039;-86
2021/12/23 07:51:04;;;;;;;26.08;15.52;;;;;;;;;;5119687;27;20043;-86
2021/12/23 07:53:30;;;;;;;19.83;12.38;;;;;;;;;;5102578;27;20054;-86
2021/12/23 07:55:56;;;;;;;24.58;15.32;;;;;;;;;;5138384;27;20036;-87
2021/12/23 07:58:22;;;;;;;26.08;15.30;;;;;;;;;;5119653;27;20078;-86
2021/12/23 08:00:48;;;;;;;21.50;12.98;;;;;;;;;;5103247;27;20039;-86
2021/12/23 08:03:14;;;;;;;25.98;14.43;;;;;;;;;;5137851;27;20051;-86
2021/12/23 08:05:41;;;;;;;29.10;14.77;;;;;;;;;;5119780;27;20095;-86
2021/12/23 08:08:07;;;;;;;30.65;15.73;;;;;;;;;;5119513;27;20065;-86
2021/12/23 08:10:34;;;;;;;28.45;15.80;;;;;;;;;;5101560;27;20399;-86
2021/12/23 08:13:01;;;;;;;22.13;14.25;;;;;;;;;;5102453;27;20047;-87
2021/12/23 08:15:27;;;;;;;23.77;16.00;;;;;;;;;;5103272;27;20038;-86
2021/12/23 08:17:53;;;;;;;22.42;14.65;;;;;;;;;;5120587;27;20155;-86
2021/12/23 08:20:19;;;;;;;33.08;15.35;;;;;;;;;;5119339;27;20039;-86
2021/12/23 08:22:45;;;;;;;25.35;15.70;;;;;;;;;;5137483;27;20126;-86
2021/12/23 08:25:12;;;;;;;26.15;13.60;;;;;;;;;;5102946;27;20047;-86
2021/12/23 08:27:39;;;;;;;24.05;13.15;;;;;;;;;;5101851;27;20393;-87
2021/12/23 08:30:06;;;;;;;27.33;15.85;;;;;;;;;;5102352;27;20408;-86
2021/12/23 08:32:32;;;;;;;29.48;16.48;;;;;;;;;;5101999;27;20046;-87
2021/12/23 08:34:58;;;;;;;25.95;14.52;;;;;;;;;;5119242;27;20031;-86
2021/12/23 08:37:24;;;;;;;29.45;14.93;;;;;;;;;;5118775;27;20494;-86
2021/12/23 08:39:51;;;;;;;27.15;16.35;;;;;;;;;;5119104;27;20059;-87
2021/12/23 08:42:17;;;;;;;20.85;14.88;;;;;;;;;;5137263;27;20100;-86
2021/12/23 08:44:44;;;;;;;27.17;15.40;;;;;;;;;;5120006;27;20046;-87
2021/12/23 08:47:11;;;;;;;31.25;16.40;;;;;;;;;;5102083;27;20050;-87
2021/12/23 08:49:38;;;;;;;21.35;13.38;;;;;;;;;;5119479;27;20433;-87
2021/12/23 08:52:04;;;;;;;25.70;14.63;;;;;;;;;;5119060;27;20061;-86
2021/12/23 08:54:30;;;;;;;30.70;17.50;;;;;;;;;;5101702;27;20072;-86
2021/12/23 08:56:56;;;;;;;28.45;16.65;;;;;;;;;;5102490;27;20039;-86
2021/12/23 08:59:22;;;;;;;30.15;16.50;;;;;;;;;;5101718;27;20036;-86
2021/12/23 09:01:48;;;;;;;33.15;17.23;;;;;;;;;;5102153;27;20043;-86
2021/12/23 09:04:14;;;;;;;30.02;15.80;;;;;;;;;;5118507;27;20126;-87
2021/12/23 09:06:41;;;;;;;27.88;16.85;;;;;;;;;;5101780;27;20507;-87
2021/12/23 09:09:08;;;;;;;24.10;13.70;;;;;;;;;;5118534;27;20616;-87
2021/12/23 09:11:34;;;;;;;29.48;16.63;;;;;;;;;;5118488;27;20092;-87
2021/12/23 09:14:00;;;;;;;28.83;17.83;;;;;;;;;;5101610;27;20051;-87
2021/12/23 09:16:26;;;;;;;29.10;17.77;;;;;;;;;;5101018;27;20046;-87
2021/12/23 09:18:52;;;;;;;33.00;18.58;;;;;;;;;;5100807;27;20092;-87
2021/12/23 09:21:18;;;;;;;26.55;17.30;;;;;;;;;;5100453;27;20050;-87
2021/12/23 09:23:45;;;;;;;30.65;16.55;;;;;;;;;;5100895;27;20054;-87
2021/12/23 09:26:11;;;;;;;26.50;16.85;;;;;;;;;;5102718;27;20133;-87
2021/12/23 09:28:56;;;;;;;29.08;17.25;;;;;;;;;;5118987;27;20051;-87
2021/12/23 09:34:08;;;;;;;33.60;17.45;;;;;;;;;;5117726;27;20069;-87
2021/12/23 09:36:34;;;;;;;35.88;21.00;;;;;;;;;;5117933;27;20093;-87
2021/12/23 09:39:00;;;;;;;32.67;17.77;;;;;;;;;;5100768;27;20473;-86
2021/12/23 09:41:27;;;;;;;36.00;19.73;;;;;;;;;;5101544;27;20050;-86
2021/12/23 09:43:57;;;;;;;35.08;19.33;;;;;;;;;;5117834;27;20043;-86
2021/12/23 09:46:23;;;;;;;38.50;21.55;;;;;;;;;;5136359;27;20039;-85
2021/12/23 09:48:50;;;;;;;36.55;20.48;;;;;;;;;;5101524;27;20043;-87
2021/12/23 09:51:18;;;;;;;41.67;21.58;;;;;;;;;;5100846;27;20095;-86
2021/12/23 09:53:55;;;;;;;42.47;21.00;;;;;;;;;;5101826;27;20499;-87
2021/12/23 09:56:21;;;;;;;37.63;20.55;;;;;;;;;;5103049;27;20050;-90
2021/12/23 09:58:47;;;;;;;36.40;19.67;;;;;;;;;;5101951;27;20043;-88
2021/12/23 10:01:14;;;;;;;39.28;22.48;;;;;;;;;;5102113;27;20053;-88
2021/12/23 10:03:40;;;;;;;36.30;19.63;;;;;;;;;;5102317;27;20463;-88
2021/12/23 10:06:06;;;;;;;38.10;21.77;;;;;;;;;;5101761;27;20082;-89
2021/12/23 10:08:33;;;;;;;41.72;22.42;;;;;;;;;;5101836;27;20045;-90
2021/12/23 10:11:35;;;;;;;41.90;22.38;;;;;;;;;;5122460;27;20103;-96
2021/12/23 10:33:51;;;;;;;42.60;22.98;;;;;;;;;;4962383;28;20076;-96
2021/12/23 10:38:37;;;;;;;45.15;25.33;;;;;;;;;;4958358;28;20054;-94
2021/12/23 10:44:31;;;;;;;48.15;25.38;;;;;;;;;;4958897;28;20167;-94
2021/12/23 10:46:59;;;;;;;52.42;25.92;;;;;;;;;;4943548;28;20090;-92
2021/12/23 10:49:41;;;;;;;50.80;25.95;;;;;;;;;;4942055;28;20457;-95
2021/12/23 10:52:18;;;;;;;47.58;23.23;;;;;;;;;;4942872;28;20054;-95
2021/12/23 11:00:45;;;;;;;49.45;26.00;;;;;;;;;;5054213;28;20455;-96
2021/12/23 11:06:04;;;;;;;42.60;21.00;;;;;;;;;;5039295;28;20106;-94
2021/12/23 11:11:23;;;;;;;48.60;25.00;;;;;;;;;;5094805;28;20070;-95
2021/12/23 11:42:05;;;;;;;50.33;25.25;;;;;;;;;;5117727;28;20047;-88
2021/12/23 11:44:31;;;;;;;;;;;;;;;;;;5136829;27;20039;-87
2021/12/23 11:47:01;;;;;;;47.10;24.30;;;;;;;;;;5120868;27;19966;-87
2021/12/23 11:49:27;;;;;;;49.47;26.35;;;;;;;;;;5103317;27;20047;-88
2021/12/23 11:51:56;;;;;;;49.47;24.92;;;;;;;;;;5102781;27;20122;-87
2021/12/23 11:54:33;;;;;;;47.22;24.23;;;;;;;;;;5119820;27;20054;-87
2021/12/23 11:57:03;;;;;;;48.65;26.65;;;;;;;;;;5103067;27;20134;-87
2021/12/23 11:59:30;;;;;;;49.40;25.52;;;;;;;;;;5103022;27;20493;-87
2021/12/23 12:01:56;;;;;;;43.88;24.50;;;;;;;;;;5103876;27;20046;-87
2021/12/23 12:04:35;;;;;;;48.00;22.85;;;;;;;;;;5103143;27;20514;-87
2021/12/23 12:07:02;;;;;;;44.65;23.08;;;;;;;;;;5102621;27;20097;-87
2021/12/23 12:09:31;;;;;;;49.30;24.02;;;;;;;;;;5120282;27;20544;-87
2021/12/23 12:12:00;;;;;;;52.95;25.80;;;;;;;;;;5120792;27;20125;-87
2021/12/23 12:14:35;;;;;;;46.20;23.42;;;;;;;;;;5102959;27;20039;-88
2021/12/23 12:17:25;;;;;;;55.63;26.98;;;0.90;99.90;;;;;;5103410;27;20069;-87
2021/12/23 12:20:09;;;;;;;50.70;24.35;;;;;;;;;;5120241;27;20216;-88
2021/12/23 12:22:53;;;;;;;52.27;23.73;;;;;;;;;;5102728;27;20043;-87
2021/12/23 12:25:25;;;;;;;46.80;25.23;;;;;;;;;;5102632;27;20047;-87
2021/12/23 12:27:51;;;;;;;56.25;26.15;;;;;;;;;;5119964;27;20134;-87
2021/12/23 12:30:21;;;;;;;43.50;23.48;;;;;;;;;;5119490;27;20506;-87
2021/12/23 12:32:48;;;;;;;49.80;22.95;;;;;;;;;;5102863;27;20129;-87
2021/12/23 12:35:14;;;;;;;48.33;25.42;;;;;;;;;;5103352;27;20074;-91
2021/12/23 12:37:44;;;;;;;57.40;27.27;;;;;;;;;;5103302;27;20039;-92
2021/12/23 12:40:11;;;;;;;52.00;26.73;;;;;;;;;;5119474;27;20051;-88
2021/12/23 12:42:42;;;;;;;53.15;27.17;;;;;;;;;;5102409;27;20072;-88
2021/12/23 12:45:13;;;;;;;58.35;28.27;;;;;;;;;;5102568;27;20039;-88
2021/12/23 12:47:53;;;;;;;54.67;26.27;;;;;;;;;;5120168;27;20108;-90
2021/12/23 12:50:21;;;;;;;59.55;27.73;;;;;;;;;;5118736;27;20050;-92
2021/12/23 12:52:49;;;;;;;51.85;25.77;;;;;;;;;;5102898;27;20039;-89
2021/12/23 12:55:15;;;;;;;53.75;25.35;;;;;;;;;;5102488;27;20076;-89
2021/12/23 12:57:46;;;;;;;54.47;27.38;;;;;;;;;;5118779;27;20443;-89
2021/12/23 13:00:15;;;;;;;52.40;25.67;;;;;;;;;;5102095;27;20138;-89
2021/12/23 13:02:41;;;;;;;50.20;25.58;;;;;;;;;;5102252;27;20095;-89
2021/12/23 13:05:09;;;;;;;52.90;27.65;;;;;;;;;;5102917;27;20039;-89
2021/12/23 13:07:36;;;;;;;57.15;27.20;;;;;;;;;;5102053;27;20043;-88
2021/12/23 13:10:16;;;;;;;45.92;20.20;;;;;;;;;;5103096;27;20035;-92
2021/12/23 13:13:11;;;;;;;47.35;24.50;;;;;;;;;;5103402;27;20548;-90
2021/12/23 13:15:41;;;;;;;55.17;28.00;;;;;;;;;;5099516;27;20053;-90
2021/12/23 13:18:15;;;;;;;50.80;25.23;;;;;;;;;;5101910;27;20043;-89
2021/12/23 13:20:41;;;;;;;49.47;26.00;;;;;;;;;;5119041;27;20107;-88
2021/12/23 13:23:12;;;;;;;53.67;25.33;;;;;;;;;;5102402;27;20083;-88
2021/12/23 13:25:45;;;;;;;54.80;26.40;;;;;;;;;;5101970;27;20039;-89
2021/12/23 13:28:11;;;;;;;58.92;27.30;;;;;;;;;;5102169;27;20096;-93
2021/12/23 13:31:06;;;;;;;60.65;27.80;;;;;;;;;;5102157;27;20126;-92
2021/12/23 13:33:46;;;;;;;52.70;26.90;;;;;;;;;;5109266;27;20132;-94
2021/12/23 13:36:13;;;;;;;58.53;26.75;;;;;;;;;;5119351;27;20029;-92
2021/12/23 13:38:41;;;;;;;61.58;26.52;;;;;;;;;;5102262;27;20043;-89
2021/12/23 13:41:27;;;;;;;53.30;26.10;;;;;;;;;;5101849;27;20043;-93
2021/12/23 13:43:55;;;;;;;51.65;24.30;;;;;;;;;;5119252;27;20058;-93
2021/12/23 13:46:24;;;;;;;56.58;24.83;;;;;;;;;;5119599;27;20051;-92
2021/12/23 13:49:16;;;;;;;51.38;24.52;;;;;;;;;;5101017;27;20039;-93
2021/12/23 13:51:47;;;;;;;59.92;27.42;;;;;;;;;;5097570;27;20138;-92
2021/12/23 13:54:18;;;;;;;52.30;25.48;;;;;;;;;;5118759;27;20075;-91
2021/12/23 13:56:48;;;;;;;56.35;27.83;;;;;;;;;;5102735;27;20430;-92
2021/12/23 13:59:19;;;;;;;56.60;25.67;;;;;;;;;;5101874;27;20368;-93
2021/12/23 14:02:27;;;;;;;53.22;26.40;;;;;;;;;;5102622;27;20511;-95
2021/12/23 14:04:57;;;;;;;53.47;26.80;;;;;;;;;;5018546;28;20045;-92
2021/12/23 14:07:31;;;;;;;49.83;26.42;;;;;;;;;;5001133;28;20037;-92
2021/12/23 14:10:32;;;;;;;;;;;;;;;;;;;;;
2021/12/23 14:13:31;;;;;;;58.53;23.95;;;;;;;;;;4975360;28;20054;-93
2021/12/23 14:15:57;;;;;;;56.95;26.10;;;;;;;;;;4959234;28;20077;-92
2021/12/23 14:18:47;;;;;;;59.55;26.23;;;;;;;;;;5012139;22;20398;-92
2021/12/23 14:24:01;;;;;;;57.75;24.63;;;;;;;;;;5034857;28;20172;-93
2021/12/23 14:26:31;;;;;;;50.50;23.83;;;;;;;;;;5017813;28;20417;-93
2021/12/23 14:29:03;;;;;;;52.63;24.70;;;;;;;;;;5017318;28;20046;-95
2021/12/23 14:31:34;;;;;;;53.53;25.58;;;;;;;;;;5018872;28;20073;-92
2021/12/23 14:34:32;;;;;;;58.22;24.95;;;;;;;;;;5019037;28;20048;-95
2021/12/23 14:37:09;;;;;;;52.42;24.10;;;;;;;;;;5015820;28;20050;-92
2021/12/23 14:43:01;;;;;;;52.08;25.77;;;;;;;;;;4977247;28;20086;-91
2021/12/23 14:45:33;;;;;;;52.30;27.95;;;;;;;;;;4962656;28;20060;-92
2021/12/23 14:51:21;;;;;;;47.58;25.40;;;;;;;;;;4956123;28;20057;-93
2021/12/23 14:54:36;;;;;;;56.13;25.40;;;1.20;99.90;;;;;;4939025;29;20099;-94
2021/12/23 15:00:14;;;;;;;47.60;23.55;;;;;;;;;;4897866;29;20039;-93
2021/12/23 15:02:40;;;;;;;56.55;26.73;;;;;;;;;;4867706;29;20057;-93
2021/12/23 15:06:08;;;;;;;;;;;;;;;;;;;;;
2021/12/23 15:19:24;;;;;;;37.90;19.13;;;;;;;;;;4923139;29;20115;-92
2021/12/23 15:21:53;;;;;;;57.88;26.00;;;;;;;;;;4902763;29;20047;-94
2021/12/23 15:24:22;;;;;;;56.90;26.38;;;;;;;;;;4915870;29;20119;-92
2021/12/23 15:26:55;;;;;;;48.33;23.92;;;;;;;;;;4917396;29;20052;-94
2021/12/23 15:29:24;;;;;;;53.58;25.35;;;;;;;;;;4912555;28;20087;-95
2021/12/23 15:31:54;;;;;;;55.70;27.63;;;;;;;;;;4931779;29;20072;-92
2021/12/23 15:34:20;;;;;;;46.17;22.90;;;;;;;;;;4921782;29;20433;-93
2021/12/23 15:36:50;;;;;;;58.25;26.55;;;;;;;;;;4944016;28;20113;-94
2021/12/23 15:42:12;;;;;;;71.03;25.83;;;;;;;;;;5133220;22;20052;-96
2021/12/23 15:44:40;;;;;;;76.65;31.20;;;;;;;;;;5044422;28;20067;-95
2021/12/23 15:47:07;;;;;;;52.67;25.80;;;;;;;;;;5048520;28;20063;-95
2021/12/23 15:49:43;;;;;;;73.38;29.50;;;;;;;;;;5050941;28;20050;-93
2021/12/23 15:52:17;;;;;;;62.33;26.45;;;;;;;;;;5044565;28;20040;-93
2021/12/23 15:54:44;;;;;;;72.70;32.97;;;;;;;;;;5045971;28;20044;-96
2021/12/23 15:57:17;;;;;;;69.15;30.65;;;;;;;;;;5054205;28;20055;-96
2021/12/23 15:59:51;;;;;;;63.38;24.23;;;;;;;;;;5072522;28;20066;-94
2021/12/23 16:02:18;;;;;;;62.67;27.08;;;;;;;;;;5056040;28;20047;-94
2021/12/23 16:07:16;;;;;;;82.38;30.00;;;;;;;;;;5045750;28;20107;-95
2021/12/23 16:07:35;;;;;;;75.47;32.75;;;;;;;;;;5037263;28;20056;-94
2021/12/23 16:10:30;;;;;;;71.65;24.58;;;;;;;;;;5032733;28;20061;-94
2021/12/23 16:12:59;;;;;;;77.20;29.10;;;;;;;;;;4972376;28;20069;-94
2021/12/23 16:15:25;;;;;;;74.90;29.38;;;;;;;;;;4966792;28;20493;-95
2021/12/23 16:17:52;;;;;;;65.13;28.42;;;;;;;;;;4966482;28;20058;-94